sensor_id;sensor_type;location;lat;lon;timestamp;temperature;humidity
9915;DHT22;4996;48.746;9.174;2023-04-16T00:00:03;8.30;99.90
9915;DHT22;4996;48.746;9.174;2023-04-16T00:02:29;8.10;99.90
9915;DHT22;4996;48.746;9.174;2023-04-16T00:04:54;8.10;99.90
9915;DHT22;4996;48.746;9.174;2023-04-16T00:07:20;8.10;99.90
9915;DHT22;4996;48.746;9.174;2023-04-16T00:09:46;8.10;99.90
9915;DHT22;4996;48.746;9.174;2023-04-16T00:12:11;8.10;99.90
9915;DHT22;4996;48.746;9.174;2023-04-16T00:14:37;8.10;99.90
9915;DHT22;4996;48.746;9.174;2023-04-16T00:17:02;8.30;99.90
9915;DHT22;4996;48.746;9.174;2023-04-16T00:19:28;8.30;99.90
9915;DHT22;4996;48.746;9.174;2023-04-16T00:21:53;8.40;99.90
9915;DHT22;4996;48.746;9.174;2023-04-16T00:24:19;8.30;99.90
9915;DHT22;4996;48.746;9.174;2023-04-16T00:26:44;8.30;99.90
9915;DHT22;4996;48.746;9.174;2023-04-16T00:29:11;8.30;99.90
9915;DHT22;4996;48.746;9.174;2023-04-16T00:31:37;8.10;99.90
9915;DHT22;4996;48.746;9.174;2023-04-16T00:34:02;8.10;99.90
9915;DHT22;4996;48.746;9.174;2023-04-16T00:36:28;8.20;99.90
9915;DHT22;4996;48.746;9.174;2023-04-16T00:38:54;8.10;99.90
9915;DHT22;4996;48.746;9.174;2023-04-16T00:41:20;8.10;99.90
9915;DHT22;4996;48.746;9.174;2023-04-16T00:43:47;8.10;99.90
9915;DHT22;4996;48.746;9.174;2023-04-16T00:46:23;8.00;99.90
9915;DHT22;4996;48.746;9.174;2023-04-16T00:48:49;8.10;99.90
9915;DHT22;4996;48.746;9.174;2023-04-16T00:51:17;8.10;99.90
9915;DHT22;4996;48.746;9.174;2023-04-16T00:53:44;8.10;99.90
9915;DHT22;4996;48.746;9.174;2023-04-16T00:56:09;7.90;99.90
9915;DHT22;4996;48.746;9.174;2023-04-16T00:58:37;8.00;99.90
9915;DHT22;4996;48.746;9.174;2023-04-16T01:01:03;8.10;99.90
9915;DHT22;4996;48.746;9.174;2023-04-16T01:03:39;8.20;99.90
9915;DHT22;4996;48.746;9.174;2023-04-16T01:06:06;8.20;99.90
9915;DHT22;4996;48.746;9.174;2023-04-16T01:08:31;8.30;99.90
9915;DHT22;4996;48.746;9.174;2023-04-16T01:10:57;8.30;99.90
9915;DHT22;4996;48.746;9.174;2023-04-16T01:13:23;8.40;99.90
9915;DHT22;4996;48.746;9.174;2023-04-16T01:15:48;8.30;99.90
9915;DHT22;4996;48.746;9.174;2023-04-16T01:18:18;8.40;99.90
9915;DHT22;4996;48.746;9.174;2023-04-16T01:20:45;8.40;99.90
9915;DHT22;4996;48.746;9.174;2023-04-16T01:23:11;8.50;99.90
9915;DHT22;4996;48.746;9.174;2023-04-16T01:25:37;8.40;99.90
9915;DHT22;4996;48.746;9.174;2023-04-16T01:28:03;8.40;99.90
9915;DHT22;4996;48.746;9.174;2023-04-16T01:30:28;8.50;99.90
9915;DHT22;4996;48.746;9.174;2023-04-16T01:32:54;8.60;99.90
9915;DHT22;4996;48.746;9.174;2023-04-16T01:35:20;8.50;99.90
9915;DHT22;4996;48.746;9.174;2023-04-16T01:37:46;8.40;99.90
9915;DHT22;4996;48.746;9.174;2023-04-16T01:40:11;8.40;99.90
9915;DHT22;4996;48.746;9.174;2023-04-16T01:42:37;8.40;99.90
9915;DHT22;4996;48.746;9.174;2023-04-16T01:45:03;8.50;99.90
9915;DHT22;4996;48.746;9.174;2023-04-16T01:47:29;8.20;99.90
9915;DHT22;4996;48.746;9.174;2023-04-16T01:49:55;8.30;99.90
9915;DHT22;4996;48.746;9.174;2023-04-16T01:52:20;8.40;99.90
9915;DHT22;4996;48.746;9.174;2023-04-16T01:54:46;8.20;99.90
9915;DHT22;4996;48.746;9.174;2023-04-16T01:57:11;8.40;99.90
9915;DHT22;4996;48.746;9.174;2023-04-16T01:59:37;8.30;99.90
9915;DHT22;4996;48.746;9.174;2023-04-16T02:02:07;8.20;99.90
9915;DHT22;4996;48.746;9.174;2023-04-16T02:04:42;8.10;99.90
9915;DHT22;4996;48.746;9.174;2023-04-16T02:07:08;8.10;99.90
9915;DHT22;4996;48.746;9.174;2023-04-16T02:09:35;8.00;99.90
9915;DHT22;4996;48.746;9.174;2023-04-16T02:12:01;8.20;99.90
9915;DHT22;4996;48.746;9.174;2023-04-16T02:14:28;8.40;99.90
9915;DHT22;4996;48.746;9.174;2023-04-16T02:16:53;8.10;99.90
9915;DHT22;4996;48.746;9.174;2023-04-16T02:19:19;8.10;99.90
9915;DHT22;4996;48.746;9.174;2023-04-16T02:21:44;8.10;99.90
9915;DHT22;4996;48.746;9.174;2023-04-16T02:24:10;8.00;99.90
9915;DHT22;4996;48.746;9.174;2023-04-16T02:26:35;8.10;99.90
9915;DHT22;4996;48.746;9.174;2023-04-16T02:29:01;8.10;99.90
9915;DHT22;4996;48.746;9.174;2023-04-16T02:31:27;8.20;99.90
9915;DHT22;4996;48.746;9.174;2023-04-16T02:33:53;8.10;99.90
9915;DHT22;4996;48.746;9.174;2023-04-16T02:36:18;8.10;99.90
9915;DHT22;4996;48.746;9.174;2023-04-16T02:38:44;8.10;99.90
9915;DHT22;4996;48.746;9.174;2023-04-16T02:41:10;8.20;99.90
9915;DHT22;4996;48.746;9.174;2023-04-16T02:43:36;7.90;99.90
9915;DHT22;4996;48.746;9.174;2023-04-16T02:46:01;8.00;99.90
9915;DHT22;4996;48.746;9.174;2023-04-16T02:48:27;7.80;99.90
9915;DHT22;4996;48.746;9.174;2023-04-16T02:50:52;7.90;99.90
9915;DHT22;4996;48.746;9.174;2023-04-16T02:53:18;7.90;99.90
9915;DHT22;4996;48.746;9.174;2023-04-16T02:55:50;7.90;99.90
9915;DHT22;4996;48.746;9.174;2023-04-16T02:58:20;7.90;99.90
9915;DHT22;4996;48.746;9.174;2023-04-16T03:00:46;8.10;99.90
9915;DHT22;4996;48.746;9.174;2023-04-16T03:03:11;8.10;99.90
9915;DHT22;4996;48.746;9.174;2023-04-16T03:05:37;8.10;99.90
9915;DHT22;4996;48.746;9.174;2023-04-16T03:08:03;8.10;99.90
9915;DHT22;4996;48.746;9.174;2023-04-16T03:10:28;8.10;99.90
9915;DHT22;4996;48.746;9.174;2023-04-16T03:12:54;8.20;99.90
9915;DHT22;4996;48.746;9.174;2023-04-16T03:15:20;8.20;99.90
9915;DHT22;4996;48.746;9.174;2023-04-16T03:17:45;8.20;99.90
9915;DHT22;4996;48.746;9.174;2023-04-16T03:20:11;8.00;99.90
9915;DHT22;4996;48.746;9.174;2023-04-16T03:22:39;8.00;99.90
9915;DHT22;4996;48.746;9.174;2023-04-16T03:25:06;8.10;99.90
9915;DHT22;4996;48.746;9.174;2023-04-16T03:27:32;8.10;99.90
9915;DHT22;4996;48.746;9.174;2023-04-16T03:29:58;8.10;99.90
9915;DHT22;4996;48.746;9.174;2023-04-16T03:32:23;8.00;99.90
9915;DHT22;4996;48.746;9.174;2023-04-16T03:34:49;8.00;99.90
9915;DHT22;4996;48.746;9.174;2023-04-16T03:37:15;8.10;99.90
9915;DHT22;4996;48.746;9.174;2023-04-16T03:39:40;8.00;99.90
9915;DHT22;4996;48.746;9.174;2023-04-16T03:42:06;8.10;99.90
9915;DHT22;4996;48.746;9.174;2023-04-16T03:44:32;8.30;99.90
9915;DHT22;4996;48.746;9.174;2023-04-16T03:46:57;8.20;99.90
9915;DHT22;4996;48.746;9.174;2023-04-16T03:49:23;8.00;99.90
9915;DHT22;4996;48.746;9.174;2023-04-16T03:51:48;7.80;99.90
9915;DHT22;4996;48.746;9.174;2023-04-16T03:54:14;7.90;99.90
9915;DHT22;4996;48.746;9.174;2023-04-16T03:56:39;7.90;99.90
9915;DHT22;4996;48.746;9.174;2023-04-16T03:59:06;7.90;99.90
9915;DHT22;4996;48.746;9.174;2023-04-16T04:01:31;8.00;99.90
9915;DHT22;4996;48.746;9.174;2023-04-16T04:03:57;7.80;99.90
9915;DHT22;4996;48.746;9.174;2023-04-16T04:06:22;8.40;99.90
9915;DHT22;4996;48.746;9.174;2023-04-16T04:08:48;7.80;99.90
9915;DHT22;4996;48.746;9.174;2023-04-16T04:11:13;7.90;99.90
9915;DHT22;4996;48.746;9.174;2023-04-16T04:13:39;8.00;99.90
9915;DHT22;4996;48.746;9.174;2023-04-16T04:16:05;8.00;99.90
9915;DHT22;4996;48.746;9.174;2023-04-16T04:18:30;8.00;99.90
9915;DHT22;4996;48.746;9.174;2023-04-16T04:20:56;8.00;99.90
9915;DHT22;4996;48.746;9.174;2023-04-16T04:23:22;7.70;99.90
9915;DHT22;4996;48.746;9.174;2023-04-16T04:25:48;7.90;99.90
9915;DHT22;4996;48.746;9.174;2023-04-16T04:28:13;8.00;99.90
9915;DHT22;4996;48.746;9.174;2023-04-16T04:30:39;8.10;99.90
9915;DHT22;4996;48.746;9.174;2023-04-16T04:33:05;8.00;99.90
9915;DHT22;4996;48.746;9.174;2023-04-16T04:35:31;8.10;99.90
9915;DHT22;4996;48.746;9.174;2023-04-16T04:37:56;8.10;99.90
9915;DHT22;4996;48.746;9.174;2023-04-16T04:40:22;7.80;99.90
9915;DHT22;4996;48.746;9.174;2023-04-16T04:42:47;8.00;99.90
9915;DHT22;4996;48.746;9.174;2023-04-16T04:45:13;8.00;99.90
9915;DHT22;4996;48.746;9.174;2023-04-16T04:47:39;8.10;99.90
9915;DHT22;4996;48.746;9.174;2023-04-16T04:50:05;8.10;99.90
9915;DHT22;4996;48.746;9.174;2023-04-16T04:52:30;8.10;99.90
9915;DHT22;4996;48.746;9.174;2023-04-16T04:54:56;8.00;99.90
9915;DHT22;4996;48.746;9.174;2023-04-16T04:57:21;8.10;99.90
9915;DHT22;4996;48.746;9.174;2023-04-16T04:59:47;8.20;99.90
9915;DHT22;4996;48.746;9.174;2023-04-16T05:02:13;8.30;99.90
9915;DHT22;4996;48.746;9.174;2023-04-16T05:04:38;8.20;99.90
9915;DHT22;4996;48.746;9.174;2023-04-16T05:07:04;8.10;99.90
9915;DHT22;4996;48.746;9.174;2023-04-16T05:09:31;8.20;99.90
9915;DHT22;4996;48.746;9.174;2023-04-16T05:11:56;8.30;99.90
9915;DHT22;4996;48.746;9.174;2023-04-16T05:14:22;8.20;99.90
9915;DHT22;4996;48.746;9.174;2023-04-16T05:16:47;8.30;99.90
9915;DHT22;4996;48.746;9.174;2023-04-16T05:19:13;8.30;99.90
9915;DHT22;4996;48.746;9.174;2023-04-16T05:21:38;8.20;99.90
9915;DHT22;4996;48.746;9.174;2023-04-16T05:24:05;8.00;99.90
9915;DHT22;4996;48.746;9.174;2023-04-16T05:26:31;8.00;99.90
9915;DHT22;4996;48.746;9.174;2023-04-16T05:28:56;8.00;99.90
9915;DHT22;4996;48.746;9.174;2023-04-16T05:31:22;8.00;99.90
9915;DHT22;4996;48.746;9.174;2023-04-16T05:33:47;8.00;99.90
9915;DHT22;4996;48.746;9.174;2023-04-16T05:36:13;8.00;99.90
9915;DHT22;4996;48.746;9.174;2023-04-16T05:38:38;8.00;99.90
9915;DHT22;4996;48.746;9.174;2023-04-16T05:41:04;8.20;99.90
9915;DHT22;4996;48.746;9.174;2023-04-16T05:43:29;8.10;99.90
9915;DHT22;4996;48.746;9.174;2023-04-16T05:45:55;8.10;99.90
9915;DHT22;4996;48.746;9.174;2023-04-16T05:48:21;8.00;99.90
9915;DHT22;4996;48.746;9.174;2023-04-16T05:50:46;8.20;99.90
9915;DHT22;4996;48.746;9.174;2023-04-16T05:53:13;7.90;99.90
9915;DHT22;4996;48.746;9.174;2023-04-16T05:55:38;8.00;99.90
9915;DHT22;4996;48.746;9.174;2023-04-16T05:58:04;7.90;99.90
9915;DHT22;4996;48.746;9.174;2023-04-16T06:00:31;8.00;99.90
9915;DHT22;4996;48.746;9.174;2023-04-16T06:02:56;8.00;99.90
9915;DHT22;4996;48.746;9.174;2023-04-16T06:05:22;8.10;99.90
9915;DHT22;4996;48.746;9.174;2023-04-16T06:07:48;7.90;99.90
9915;DHT22;4996;48.746;9.174;2023-04-16T06:10:13;8.00;99.90
9915;DHT22;4996;48.746;9.174;2023-04-16T06:12:39;8.00;99.90
9915;DHT22;4996;48.746;9.174;2023-04-16T06:15:05;8.00;99.90
9915;DHT22;4996;48.746;9.174;2023-04-16T06:17:30;8.00;99.90
9915;DHT22;4996;48.746;9.174;2023-04-16T06:19:56;8.10;99.90
9915;DHT22;4996;48.746;9.174;2023-04-16T06:22:21;8.00;99.90
9915;DHT22;4996;48.746;9.174;2023-04-16T06:24:48;8.00;99.90
9915;DHT22;4996;48.746;9.174;2023-04-16T06:27:13;8.10;99.90
9915;DHT22;4996;48.746;9.174;2023-04-16T06:29:39;7.80;99.90
9915;DHT22;4996;48.746;9.174;2023-04-16T06:32:04;7.80;99.90
9915;DHT22;4996;48.746;9.174;2023-04-16T06:34:30;7.90;99.90
9915;DHT22;4996;48.746;9.174;2023-04-16T06:36:56;8.00;99.90
9915;DHT22;4996;48.746;9.174;2023-04-16T06:39:21;8.10;99.90
9915;DHT22;4996;48.746;9.174;2023-04-16T06:41:47;8.00;99.90
9915;DHT22;4996;48.746;9.174;2023-04-16T06:44:13;8.10;99.90
9915;DHT22;4996;48.746;9.174;2023-04-16T06:46:39;7.90;99.90
9915;DHT22;4996;48.746;9.174;2023-04-16T06:49:05;7.90;99.90
9915;DHT22;4996;48.746;9.174;2023-04-16T06:51:31;8.10;99.90
9915;DHT22;4996;48.746;9.174;2023-04-16T06:53:56;8.00;99.90
9915;DHT22;4996;48.746;9.174;2023-04-16T06:56:22;8.00;99.90
9915;DHT22;4996;48.746;9.174;2023-04-16T06:58:47;8.00;99.90
9915;DHT22;4996;48.746;9.174;2023-04-16T07:01:13;7.80;99.90
9915;DHT22;4996;48.746;9.174;2023-04-16T07:03:38;7.80;99.90
9915;DHT22;4996;48.746;9.174;2023-04-16T07:06:04;8.00;99.90
9915;DHT22;4996;48.746;9.174;2023-04-16T07:08:30;8.10;99.90
9915;DHT22;4996;48.746;9.174;2023-04-16T07:10:55;8.00;99.90
9915;DHT22;4996;48.746;9.174;2023-04-16T07:13:21;8.20;99.90
9915;DHT22;4996;48.746;9.174;2023-04-16T07:15:46;8.00;99.90
9915;DHT22;4996;48.746;9.174;2023-04-16T07:18:12;8.10;99.90
9915;DHT22;4996;48.746;9.174;2023-04-16T07:20:38;8.20;99.90
9915;DHT22;4996;48.746;9.174;2023-04-16T07:23:04;8.00;99.90
9915;DHT22;4996;48.746;9.174;2023-04-16T07:25:30;8.10;99.90
9915;DHT22;4996;48.746;9.174;2023-04-16T07:27:55;8.10;99.90
9915;DHT22;4996;48.746;9.174;2023-04-16T07:30:21;8.10;99.90
9915;DHT22;4996;48.746;9.174;2023-04-16T07:32:46;8.00;99.90
9915;DHT22;4996;48.746;9.174;2023-04-16T07:35:12;8.10;99.90
9915;DHT22;4996;48.746;9.174;2023-04-16T07:37:37;8.30;99.90
9915;DHT22;4996;48.746;9.174;2023-04-16T07:40:03;8.30;99.90
9915;DHT22;4996;48.746;9.174;2023-04-16T07:42:28;8.20;99.90
9915;DHT22;4996;48.746;9.174;2023-04-16T07:44:54;8.30;99.90
9915;DHT22;4996;48.746;9.174;2023-04-16T07:47:19;8.00;99.90
9915;DHT22;4996;48.746;9.174;2023-04-16T07:49:47;8.10;99.90
9915;DHT22;4996;48.746;9.174;2023-04-16T07:52:13;8.10;99.90
9915;DHT22;4996;48.746;9.174;2023-04-16T07:54:39;8.20;99.90
9915;DHT22;4996;48.746;9.174;2023-04-16T07:57:04;8.20;99.90
9915;DHT22;4996;48.746;9.174;2023-04-16T07:59:30;8.30;99.90
9915;DHT22;4996;48.746;9.174;2023-04-16T08:01:55;8.20;99.90
9915;DHT22;4996;48.746;9.174;2023-04-16T08:04:21;8.20;99.90
9915;DHT22;4996;48.746;9.174;2023-04-16T08:06:50;8.10;99.90
9915;DHT22;4996;48.746;9.174;2023-04-16T08:09:17;8.20;99.90
9915;DHT22;4996;48.746;9.174;2023-04-16T08:11:43;8.10;99.90
9915;DHT22;4996;48.746;9.174;2023-04-16T08:14:08;8.20;99.90
9915;DHT22;4996;48.746;9.174;2023-04-16T08:16:34;8.30;99.90
9915;DHT22;4996;48.746;9.174;2023-04-16T08:18:59;8.30;99.90
9915;DHT22;4996;48.746;9.174;2023-04-16T08:21:26;8.30;99.90
9915;DHT22;4996;48.746;9.174;2023-04-16T08:23:52;8.30;99.90
9915;DHT22;4996;48.746;9.174;2023-04-16T08:26:18;8.40;99.90
9915;DHT22;4996;48.746;9.174;2023-04-16T08:28:43;8.20;99.90
9915;DHT22;4996;48.746;9.174;2023-04-16T08:31:09;8.20;99.90
9915;DHT22;4996;48.746;9.174;2023-04-16T08:33:34;8.20;99.90
9915;DHT22;4996;48.746;9.174;2023-04-16T08:36:00;8.30;99.90
9915;DHT22;4996;48.746;9.174;2023-04-16T08:38:26;8.30;99.90
9915;DHT22;4996;48.746;9.174;2023-04-16T08:40:52;8.50;99.90
9915;DHT22;4996;48.746;9.174;2023-04-16T08:43:21;8.40;99.90
9915;DHT22;4996;48.746;9.174;2023-04-16T08:45:48;8.40;99.90
9915;DHT22;4996;48.746;9.174;2023-04-16T08:48:14;8.40;99.90
9915;DHT22;4996;48.746;9.174;2023-04-16T08:50:40;8.40;99.90
9915;DHT22;4996;48.746;9.174;2023-04-16T08:53:06;8.40;99.90
9915;DHT22;4996;48.746;9.174;2023-04-16T08:55:37;8.30;99.90
9915;DHT22;4996;48.746;9.174;2023-04-16T08:58:11;8.20;99.90
9915;DHT22;4996;48.746;9.174;2023-04-16T09:00:39;8.20;99.90
9915;DHT22;4996;48.746;9.174;2023-04-16T09:03:05;8.20;99.90
9915;DHT22;4996;48.746;9.174;2023-04-16T09:05:32;8.20;99.90
9915;DHT22;4996;48.746;9.174;2023-04-16T09:07:57;8.20;99.90
9915;DHT22;4996;48.746;9.174;2023-04-16T09:10:25;8.20;99.90
9915;DHT22;4996;48.746;9.174;2023-04-16T09:12:51;8.20;99.90
9915;DHT22;4996;48.746;9.174;2023-04-16T09:15:16;8.30;99.90
9915;DHT22;4996;48.746;9.174;2023-04-16T09:17:44;8.30;99.90
9915;DHT22;4996;48.746;9.174;2023-04-16T09:20:11;8.50;99.90
9915;DHT22;4996;48.746;9.174;2023-04-16T09:22:37;8.40;99.90
9915;DHT22;4996;48.746;9.174;2023-04-16T09:25:04;8.50;99.90
9915;DHT22;4996;48.746;9.174;2023-04-16T09:27:30;8.40;99.90
9915;DHT22;4996;48.746;9.174;2023-04-16T09:29:56;8.40;99.90
9915;DHT22;4996;48.746;9.174;2023-04-16T09:32:26;8.70;99.90
9915;DHT22;4996;48.746;9.174;2023-04-16T09:35:01;8.80;99.90
9915;DHT22;4996;48.746;9.174;2023-04-16T09:37:28;8.70;99.90
9915;DHT22;4996;48.746;9.174;2023-04-16T09:39:59;8.80;99.90
9915;DHT22;4996;48.746;9.174;2023-04-16T09:42:30;8.90;99.90
9915;DHT22;4996;48.746;9.174;2023-04-16T09:44:56;8.90;99.90
9915;DHT22;4996;48.746;9.174;2023-04-16T09:47:24;8.80;99.90
9915;DHT22;4996;48.746;9.174;2023-04-16T09:49:50;8.80;99.90
9915;DHT22;4996;48.746;9.174;2023-04-16T09:52:20;8.70;99.90
9915;DHT22;4996;48.746;9.174;2023-04-16T09:54:51;8.70;99.90
9915;DHT22;4996;48.746;9.174;2023-04-16T09:57:18;8.80;99.90
9915;DHT22;4996;48.746;9.174;2023-04-16T09:59:45;9.00;99.90
9915;DHT22;4996;48.746;9.174;2023-04-16T10:02:11;8.90;99.90
9915;DHT22;4996;48.746;9.174;2023-04-16T10:04:46;8.90;99.90
9915;DHT22;4996;48.746;9.174;2023-04-16T10:07:12;8.90;99.90
9915;DHT22;4996;48.746;9.174;2023-04-16T10:09:38;8.80;99.90
9915;DHT22;4996;48.746;9.174;2023-04-16T10:12:05;8.90;99.90
9915;DHT22;4996;48.746;9.174;2023-04-16T10:14:31;8.80;99.90
9915;DHT22;4996;48.746;9.174;2023-04-16T10:16:57;8.70;99.90
9915;DHT22;4996;48.746;9.174;2023-04-16T10:19:24;8.80;99.90
9915;DHT22;4996;48.746;9.174;2023-04-16T10:21:49;8.80;99.90
9915;DHT22;4996;48.746;9.174;2023-04-16T10:24:15;8.80;99.90
9915;DHT22;4996;48.746;9.174;2023-04-16T10:26:43;8.90;99.90
9915;DHT22;4996;48.746;9.174;2023-04-16T10:29:10;8.80;99.90
9915;DHT22;4996;48.746;9.174;2023-04-16T10:31:37;8.70;99.90
9915;DHT22;4996;48.746;9.174;2023-04-16T10:34:04;8.80;99.90
9915;DHT22;4996;48.746;9.174;2023-04-16T10:36:35;8.90;99.90
9915;DHT22;4996;48.746;9.174;2023-04-16T10:39:01;9.00;99.90
9915;DHT22;4996;48.746;9.174;2023-04-16T10:41:27;8.90;99.90
9915;DHT22;4996;48.746;9.174;2023-04-16T10:44:03;9.00;99.90
9915;DHT22;4996;48.746;9.174;2023-04-16T10:46:37;9.10;99.90
9915;DHT22;4996;48.746;9.174;2023-04-16T10:49:13;9.20;99.90
9915;DHT22;4996;48.746;9.174;2023-04-16T10:51:40;8.90;99.90
9915;DHT22;4996;48.746;9.174;2023-04-16T10:56:36;8.80;99.90
9915;DHT22;4996;48.746;9.174;2023-04-16T10:59:05;8.70;99.90
9915;DHT22;4996;48.746;9.174;2023-04-16T11:01:45;8.90;99.90
9915;DHT22;4996;48.746;9.174;2023-04-16T11:09:52;8.90;99.90
9915;DHT22;4996;48.746;9.174;2023-04-16T11:12:39;8.80;99.90
9915;DHT22;4996;48.746;9.174;2023-04-16T11:15:10;9.00;99.90
9915;DHT22;4996;48.746;9.174;2023-04-16T11:17:47;9.00;99.90
9915;DHT22;4996;48.746;9.174;2023-04-16T11:20:24;9.20;99.90
9915;DHT22;4996;48.746;9.174;2023-04-16T11:22:54;9.20;99.90
9915;DHT22;4996;48.746;9.174;2023-04-16T11:25:24;9.00;99.90
9915;DHT22;4996;48.746;9.174;2023-04-16T11:27:50;9.00;99.90
9915;DHT22;4996;48.746;9.174;2023-04-16T11:30:17;9.20;99.90
9915;DHT22;4996;48.746;9.174;2023-04-16T11:32:43;9.10;99.90
9915;DHT22;4996;48.746;9.174;2023-04-16T11:35:14;9.10;99.90
9915;DHT22;4996;48.746;9.174;2023-04-16T11:37:41;9.00;99.90
9915;DHT22;4996;48.746;9.174;2023-04-16T11:40:07;8.90;99.90
9915;DHT22;4996;48.746;9.174;2023-04-16T11:42:34;8.80;99.90
9915;DHT22;4996;48.746;9.174;2023-04-16T11:45:01;8.80;99.90
9915;DHT22;4996;48.746;9.174;2023-04-16T11:47:29;9.40;99.90
9915;DHT22;4996;48.746;9.174;2023-04-16T11:49:55;9.00;99.90
9915;DHT22;4996;48.746;9.174;2023-04-16T11:52:25;9.10;99.90
9915;DHT22;4996;48.746;9.174;2023-04-16T11:54:52;8.90;99.90
9915;DHT22;4996;48.746;9.174;2023-04-16T11:57:28;8.90;99.90
9915;DHT22;4996;48.746;9.174;2023-04-16T11:59:54;9.00;99.90
9915;DHT22;4996;48.746;9.174;2023-04-16T12:05:03;9.10;99.90
9915;DHT22;4996;48.746;9.174;2023-04-16T12:07:28;9.10;99.90
9915;DHT22;4996;48.746;9.174;2023-04-16T12:10:05;9.10;99.90
9915;DHT22;4996;48.746;9.174;2023-04-16T12:12:32;9.20;99.90
9915;DHT22;4996;48.746;9.174;2023-04-16T12:14:58;9.40;99.90
9915;DHT22;4996;48.746;9.174;2023-04-16T12:17:27;9.40;99.90
9915;DHT22;4996;48.746;9.174;2023-04-16T12:20:07;9.20;99.90
9915;DHT22;4996;48.746;9.174;2023-04-16T12:22:35;9.00;99.90
9915;DHT22;4996;48.746;9.174;2023-04-16T12:25:02;9.20;99.90
9915;DHT22;4996;48.746;9.174;2023-04-16T12:27:47;9.20;99.90
9915;DHT22;4996;48.746;9.174;2023-04-16T12:30:16;9.40;99.90
9915;DHT22;4996;48.746;9.174;2023-04-16T12:32:43;9.40;99.90
9915;DHT22;4996;48.746;9.174;2023-04-16T12:35:10;9.30;99.90
9915;DHT22;4996;48.746;9.174;2023-04-16T12:37:36;9.40;99.90
9915;DHT22;4996;48.746;9.174;2023-04-16T12:40:02;9.40;99.90
9915;DHT22;4996;48.746;9.174;2023-04-16T12:42:29;9.50;99.90
9915;DHT22;4996;48.746;9.174;2023-04-16T12:45:03;9.40;99.90
9915;DHT22;4996;48.746;9.174;2023-04-16T12:47:29;9.30;99.90
9915;DHT22;4996;48.746;9.174;2023-04-16T12:49:56;9.20;99.90
9915;DHT22;4996;48.746;9.174;2023-04-16T12:52:22;9.40;99.90
9915;DHT22;4996;48.746;9.174;2023-04-16T12:54:48;9.40;99.90
9915;DHT22;4996;48.746;9.174;2023-04-16T12:57:14;9.40;99.90
9915;DHT22;4996;48.746;9.174;2023-04-16T12:59:40;9.30;99.90
9915;DHT22;4996;48.746;9.174;2023-04-16T13:02:05;9.30;99.90
9915;DHT22;4996;48.746;9.174;2023-04-16T13:04:31;9.40;99.90
9915;DHT22;4996;48.746;9.174;2023-04-16T13:06:57;9.30;99.90
9915;DHT22;4996;48.746;9.174;2023-04-16T13:09:22;9.10;99.90
9915;DHT22;4996;48.746;9.174;2023-04-16T13:11:48;8.90;99.90
9915;DHT22;4996;48.746;9.174;2023-04-16T13:14:13;9.10;99.90
9915;DHT22;4996;48.746;9.174;2023-04-16T13:16:39;9.20;99.90
9915;DHT22;4996;48.746;9.174;2023-04-16T13:19:04;9.30;99.90
9915;DHT22;4996;48.746;9.174;2023-04-16T13:21:30;9.10;99.90
9915;DHT22;4996;48.746;9.174;2023-04-16T13:23:55;9.40;99.90
9915;DHT22;4996;48.746;9.174;2023-04-16T13:26:21;9.40;99.90
9915;DHT22;4996;48.746;9.174;2023-04-16T13:28:46;9.40;99.90
9915;DHT22;4996;48.746;9.174;2023-04-16T13:31:13;9.20;99.90
9915;DHT22;4996;48.746;9.174;2023-04-16T13:33:40;9.40;99.90
9915;DHT22;4996;48.746;9.174;2023-04-16T13:36:05;9.40;99.90
9915;DHT22;4996;48.746;9.174;2023-04-16T13:38:31;9.50;99.90
9915;DHT22;4996;48.746;9.174;2023-04-16T13:40:56;9.50;99.90
9915;DHT22;4996;48.746;9.174;2023-04-16T13:43:22;9.20;99.90
9915;DHT22;4996;48.746;9.174;2023-04-16T13:45:48;9.40;99.90
9915;DHT22;4996;48.746;9.174;2023-04-16T13:48:13;9.50;99.90
9915;DHT22;4996;48.746;9.174;2023-04-16T13:50:39;9.50;99.90
9915;DHT22;4996;48.746;9.174;2023-04-16T13:53:04;9.40;99.90
9915;DHT22;4996;48.746;9.174;2023-04-16T13:55:30;9.40;99.90
9915;DHT22;4996;48.746;9.174;2023-04-16T13:57:56;9.50;99.90
9915;DHT22;4996;48.746;9.174;2023-04-16T14:00:22;9.60;99.90
9915;DHT22;4996;48.746;9.174;2023-04-16T14:02:47;9.70;99.90
9915;DHT22;4996;48.746;9.174;2023-04-16T14:05:13;9.70;99.90
9915;DHT22;4996;48.746;9.174;2023-04-16T14:07:39;9.70;99.90
9915;DHT22;4996;48.746;9.174;2023-04-16T14:10:05;9.80;99.90
9915;DHT22;4996;48.746;9.174;2023-04-16T14:12:31;9.90;99.90
9915;DHT22;4996;48.746;9.174;2023-04-16T14:14:57;9.90;99.90
9915;DHT22;4996;48.746;9.174;2023-04-16T14:17:22;9.60;99.90
9915;DHT22;4996;48.746;9.174;2023-04-16T14:19:48;9.60;99.90
9915;DHT22;4996;48.746;9.174;2023-04-16T14:22:13;9.70;99.90
9915;DHT22;4996;48.746;9.174;2023-04-16T14:24:43;9.60;99.90
9915;DHT22;4996;48.746;9.174;2023-04-16T14:27:08;9.70;99.90
9915;DHT22;4996;48.746;9.174;2023-04-16T14:29:34;9.60;99.90
9915;DHT22;4996;48.746;9.174;2023-04-16T14:32:00;9.50;99.90
9915;DHT22;4996;48.746;9.174;2023-04-16T14:34:26;9.40;99.90
9915;DHT22;4996;48.746;9.174;2023-04-16T14:36:51;9.60;99.90
9915;DHT22;4996;48.746;9.174;2023-04-16T14:39:17;9.60;99.90
9915;DHT22;4996;48.746;9.174;2023-04-16T14:41:42;9.60;99.90
9915;DHT22;4996;48.746;9.174;2023-04-16T14:44:08;9.70;99.90
9915;DHT22;4996;48.746;9.174;2023-04-16T14:46:33;9.70;99.90
9915;DHT22;4996;48.746;9.174;2023-04-16T14:49:00;9.70;99.90
9915;DHT22;4996;48.746;9.174;2023-04-16T14:51:26;9.70;99.90
9915;DHT22;4996;48.746;9.174;2023-04-16T14:53:51;9.50;99.90
9915;DHT22;4996;48.746;9.174;2023-04-16T14:56:17;9.50;99.90
9915;DHT22;4996;48.746;9.174;2023-04-16T14:58:42;9.40;99.90
9915;DHT22;4996;48.746;9.174;2023-04-16T15:01:08;9.40;99.90
9915;DHT22;4996;48.746;9.174;2023-04-16T15:03:34;9.30;99.90
9915;DHT22;4996;48.746;9.174;2023-04-16T15:06:00;9.30;99.90
9915;DHT22;4996;48.746;9.174;2023-04-16T15:08:26;9.40;99.90
9915;DHT22;4996;48.746;9.174;2023-04-16T15:10:52;9.50;99.90
9915;DHT22;4996;48.746;9.174;2023-04-16T15:13:17;9.60;99.90
9915;DHT22;4996;48.746;9.174;2023-04-16T15:15:43;9.70;99.90
9915;DHT22;4996;48.746;9.174;2023-04-16T15:18:09;9.60;99.90
9915;DHT22;4996;48.746;9.174;2023-04-16T15:20:35;9.60;99.90
9915;DHT22;4996;48.746;9.174;2023-04-16T15:23:01;9.50;99.90
9915;DHT22;4996;48.746;9.174;2023-04-16T15:25:26;9.50;99.90
9915;DHT22;4996;48.746;9.174;2023-04-16T15:27:52;9.60;99.90
9915;DHT22;4996;48.746;9.174;2023-04-16T15:30:18;9.70;99.90
9915;DHT22;4996;48.746;9.174;2023-04-16T15:32:43;9.70;99.90
9915;DHT22;4996;48.746;9.174;2023-04-16T15:35:09;9.60;99.90
9915;DHT22;4996;48.746;9.174;2023-04-16T15:37:35;9.40;99.90
9915;DHT22;4996;48.746;9.174;2023-04-16T15:40:01;9.30;99.90
9915;DHT22;4996;48.746;9.174;2023-04-16T15:42:29;9.40;99.90
9915;DHT22;4996;48.746;9.174;2023-04-16T15:44:55;9.40;99.90
9915;DHT22;4996;48.746;9.174;2023-04-16T15:47:21;9.50;99.90
9915;DHT22;4996;48.746;9.174;2023-04-16T15:49:46;9.30;99.90
9915;DHT22;4996;48.746;9.174;2023-04-16T15:52:12;9.40;99.90
9915;DHT22;4996;48.746;9.174;2023-04-16T15:54:37;9.60;99.90
9915;DHT22;4996;48.746;9.174;2023-04-16T15:57:03;9.50;99.90
9915;DHT22;4996;48.746;9.174;2023-04-16T15:59:28;9.30;99.90
9915;DHT22;4996;48.746;9.174;2023-04-16T16:01:54;9.40;99.90
9915;DHT22;4996;48.746;9.174;2023-04-16T16:04:20;9.30;99.90
9915;DHT22;4996;48.746;9.174;2023-04-16T16:06:51;9.40;99.90
9915;DHT22;4996;48.746;9.174;2023-04-16T16:09:17;9.40;99.90
9915;DHT22;4996;48.746;9.174;2023-04-16T16:11:44;9.30;99.90
9915;DHT22;4996;48.746;9.174;2023-04-16T16:14:09;9.40;99.90
9915;DHT22;4996;48.746;9.174;2023-04-16T16:16:35;9.20;99.90
9915;DHT22;4996;48.746;9.174;2023-04-16T16:19:00;9.30;99.90
9915;DHT22;4996;48.746;9.174;2023-04-16T16:21:28;9.40;99.90